Time;durP1;ratioP1;P1;durP2;ratioP2;P2;SDS_P1;SDS_P2;PMS_P1;PMS_P2;Temp;Humidity;BMP_temperature;BMP_pressure;BME280_temperature;BME280_humidity;BME280_pressure;Samples;Min_cycle;Max_cycle;Signal;HPM_P1;HPM_P2
2022/01/03 00:00:15;;;;;;;0.50;0.50;;;;;;;10.17;64.94;96980.13;29395;250;63009;-62
2022/01/03 00:00:51;;;;;;;0.50;0.50;;;;;;;10.21;64.74;96981.22;29395;299;63005;-59
2022/01/03 00:01:26;;;;;;;0.50;0.50;;;;;;;10.19;64.82;96982.56;29395;247;63009;-59
2022/01/03 00:01:58;;;;;;;0.50;0.50;;;;;;;10.15;65.36;96987.75;29395;223;63008;-59
2022/01/03 00:02:30;;;;;;;0.50;0.50;;;;;;;10.16;64.92;96962.25;29395;212;63009;-59
2022/01/03 00:03:04;;;;;;;0.50;0.50;;;;;;;10.15;65.09;96965.25;29395;210;63004;-60
2022/01/03 00:03:38;;;;;;;0.50;0.50;;;;;;;10.13;64.99;96983.72;29395;277;63009;-59
2022/01/03 00:04:12;;;;;;;0.50;0.50;;;;;;;10.14;65.04;96986.12;29393;276;64004;-60
2022/01/03 00:04:46;;;;;;;0.50;0.50;;;;;;;10.14;64.89;96974.47;29395;263;63009;-58
2022/01/03 00:05:18;;;;;;;0.50;0.50;;;;;;;10.15;65.04;96978.81;29395;224;63005;-59
2022/01/03 00:05:50;;;;;;;0.40;0.40;;;;;;;10.15;64.70;96986.94;29394;202;64009;-64
2022/01/03 00:06:22;;;;;;;0.50;0.50;;;;;;;10.21;64.43;96980.41;29393;220;64005;-60
2022/01/03 00:06:57;;;;;;;0.50;0.50;;;;;;;10.24;63.97;96988.78;29395;276;63009;-57
2022/01/03 00:07:31;;;;;;;0.60;0.60;;;;;;;10.29;63.92;96987.91;29395;208;63005;-58
2022/01/03 00:08:05;;;;;;;0.50;0.50;;;;;;;10.32;63.51;96981.91;29395;203;63009;-57
2022/01/03 00:08:45;;;;;;;0.50;0.50;;;;;;;10.34;63.26;96988.66;29395;254;63004;-61
2022/01/03 00:09:17;;;;;;;0.82;0.82;;;;;;;10.45;62.83;96992.06;29395;259;63009;-59
2022/01/03 00:09:48;;;;;;;1.45;1.35;;;;;;;10.42;63.22;96981.78;29395;277;63004;-60
2022/01/03 00:10:20;;;;;;;0.50;0.50;;;;;;;10.45;62.67;96981.19;29395;239;63009;-60
2022/01/03 00:10:52;;;;;;;0.60;0.60;;;;;;;10.43;63.03;96988.81;29395;223;63004;-59
2022/01/03 00:11:26;;;;;;;0.50;0.50;;;;;;;10.42;62.80;96970.94;29393;202;64008;-59
2022/01/03 00:11:58;;;;;;;0.50;0.50;;;;;;;10.44;63.28;96978.78;29395;228;63004;-58
2022/01/03 00:12:32;;;;;;;0.50;0.50;;;;;;;10.46;63.15;96971.97;29395;215;63009;-58
2022/01/03 00:13:05;;;;;;;3.58;1.08;;;;;;;10.45;62.67;96974.97;29395;238;63005;-58
2022/01/03 00:13:49;;;;;;;0.65;0.65;;;;;;;10.44;62.41;96968.72;29395;197;63009;-65
2022/01/03 00:14:26;;;;;;;0.50;0.50;;;;;;;10.51;62.33;96968.37;29395;257;63009;-60
2022/01/03 00:14:58;;;;;;;0.50;0.50;;;;;;;10.50;62.13;96967.56;29395;236;63009;-64
2022/01/03 00:15:32;;;;;;;0.50;0.50;;;;;;;10.56;61.98;96971.84;29395;233;63005;-62
2022/01/03 00:16:04;;;;;;;0.40;0.40;;;;;;;10.57;61.76;96959.91;29395;231;63009;-59
2022/01/03 00:16:38;;;;;;;0.50;0.50;;;;;;;10.57;62.31;96969.94;29393;227;64004;-58
2022/01/03 00:17:09;;;;;;;0.50;0.50;;;;;;;10.57;62.12;96962.63;29394;196;64009;-58
2022/01/03 00:17:42;;;;;;;0.50;0.50;;;;;;;10.57;61.67;96946.34;29395;211;63004;-63
2022/01/03 00:18:15;;;;;;;0.60;0.60;;;;;;;10.56;61.70;96961.00;29395;204;63008;-58
2022/01/03 00:18:51;;;;;;;0.50;0.50;;;;;;;10.54;62.15;96946.09;29395;197;63004;-61
2022/01/03 00:19:24;;;;;;;0.90;0.90;;;;;;;10.53;62.28;96934.44;29395;202;63009;-60
2022/01/03 00:19:59;;;;;;;0.50;0.50;;;;;;;10.52;62.07;96945.59;29395;226;63005;-61
2022/01/03 00:20:30;;;;;;;0.50;0.50;;;;;;;10.49;61.95;96940.75;29395;236;63009;-59
2022/01/03 00:21:07;;;;;;;0.50;0.50;;;;;;;10.48;62.40;96958.91;29393;214;64005;-64
2022/01/03 00:21:52;;;;;;;0.50;0.50;;;;;;;10.49;62.01;96955.13;29393;229;64009;-61
2022/01/03 00:22:27;;;;;;;0.50;0.50;;;;;;;10.49;62.38;96938.84;29393;218;64005;-59
2022/01/03 00:23:10;;;;;;;0.50;0.50;;;;;;;10.58;61.30;96937.09;29395;215;63009;-59
2022/01/03 00:23:51;;;;;;;0.50;0.50;;;;;;;10.64;61.35;96946.78;29395;210;63004;-63
2022/01/03 00:24:31;;;;;;;0.50;0.50;;;;;;;10.62;61.49;96948.97;29395;222;63009;-58
2022/01/03 00:25:06;;;;;;;0.50;0.50;;;;;;;10.67;61.29;96940.78;29377;248;125004;-63
2022/01/03 00:25:42;;;;;;;0.50;0.50;;;;;;;10.70;60.99;96934.78;29393;236;64008;-59
2022/01/03 00:26:22;;;;;;;0.50;0.50;;;;;;;10.66;61.69;96943.78;29393;235;64004;-61
2022/01/03 00:27:05;;;;;;;0.50;0.50;;;;;;;10.67;60.90;96946.22;29396;212;63009;-61
2022/01/03 00:28:16;;;;;;;0.50;0.50;;;;;;;10.63;61.45;96966.87;29395;220;63005;-60
2022/01/03 00:29:25;;;;;;;0.50;0.50;;;;;;;10.68;60.84;96936.97;29395;220;63009;-53
2022/01/03 00:30:15;;;;;;;0.50;0.50;;;;;;;10.70;60.88;96951.06;29394;239;64005;-60
2022/01/03 00:30:50;;;;;;;0.50;0.50;;;;;;;10.67;60.79;96945.41;29395;221;63009;-55
2022/01/03 00:31:25;;;;;;;0.50;0.50;;;;;;;10.66;61.26;96949.22;29395;254;63004;-59
2022/01/03 00:31:57;;;;;;;0.47;0.47;;;;;;;10.62;61.17;96945.47;29395;220;63009;-57
2022/01/03 00:32:29;;;;;;;0.50;0.50;;;;;;;10.58;61.25;96958.81;29395;226;63004;-62
2022/01/03 00:33:02;;;;;;;0.50;0.50;;;;;;;10.63;61.06;96923.47;29394;237;64009;-58
2022/01/03 00:33:34;;;;;;;0.50;0.50;;;;;;;10.68;60.97;96958.69;29394;202;63004;-56
2022/01/03 00:34:07;;;;;;;0.50;0.50;;;;;;;10.64;60.87;96954.94;29395;230;63009;-60
2022/01/03 00:34:42;;;;;;;0.50;0.50;;;;;;;10.65;61.16;96964.69;29395;228;63008;-60
2022/01/03 00:35:15;;;;;;;0.50;0.50;;;;;;;10.71;60.52;96955.38;29394;276;64009;-63
2022/01/03 00:35:53;;;;;;;0.50;0.50;;;;;;;10.71;60.95;96963.53;29395;278;63005;-59
2022/01/03 00:36:28;;;;;;;0.50;0.50;;;;;;;10.72;60.58;96967.84;29395;214;63009;-58
2022/01/03 00:37:00;;;;;;;0.40;0.40;;;;;;;10.77;60.25;96955.28;29395;219;63005;-62
2022/01/03 00:37:34;;;;;;;0.50;0.50;;;;;;;10.77;60.61;96964.25;29395;244;63013;-66
2022/01/03 00:38:13;;;;;;;0.50;0.50;;;;;;;10.78;60.60;96978.62;29395;231;63005;-61
2022/01/03 00:38:54;;;;;;;0.50;0.50;;;;;;;10.78;60.75;96967.75;29395;270;63004;-58
2022/01/03 00:39:25;;;;;;;0.50;0.50;;;;;;;10.78;60.78;96984.84;29416;213;63004;-63
2022/01/03 00:39:59;;;;;;;0.50;0.50;;;;;;;10.78;60.27;96973.19;29395;237;63009;-58
2022/01/03 00:40:30;;;;;;;0.50;0.50;;;;;;;10.74;60.76;96962.91;29394;273;64004;-59
2022/01/03 00:41:02;;;;;;;0.43;0.43;;;;;;;10.72;60.87;96965.16;29395;198;63008;-64
2022/01/03 00:41:38;;;;;;;0.50;0.50;;;;;;;10.72;60.70;96973.28;29395;224;63005;-59
2022/01/03 00:42:14;;;;;;;0.40;0.40;;;;;;;10.71;60.64;96963.53;29395;227;63009;-60
2022/01/03 00:42:48;;;;;;;0.40;0.40;;;;;;;10.68;60.91;96966.81;29395;249;63005;-60
2022/01/03 00:43:20;;;;;;;0.50;0.50;;;;;;;10.63;61.33;96966.87;29395;206;63009;-60
2022/01/03 00:43:57;;;;;;;0.50;0.50;;;;;;;10.59;61.95;96979.41;29395;229;63005;-59
2022/01/03 00:44:29;;;;;;;0.50;0.50;;;;;;;10.56;60.97;96969.13;29396;254;63009;-60
2022/01/03 00:45:03;;;;;;;0.50;0.50;;;;;;;10.59;60.92;96963.12;29395;240;63005;-59
2022/01/03 00:45:35;;;;;;;0.40;0.40;;;;;;;10.65;61.13;96975.53;29394;219;64009;-66
2022/01/03 00:46:07;;;;;;;0.73;0.73;;;;;;;10.63;61.09;96961.44;29395;265;63004;-59
2022/01/03 00:46:39;;;;;;;0.50;0.50;;;;;;;10.68;60.63;96961.41;29395;206;63009;-56
2022/01/03 00:47:11;;;;;;;0.50;0.50;;;;;;;10.68;60.61;96964.09;29395;199;63004;-57
2022/01/03 00:47:45;;;;;;;0.50;0.50;;;;;;;10.69;60.83;96960.28;29395;267;63009;-60
2022/01/03 00:48:16;;;;;;;0.50;0.50;;;;;;;10.69;60.99;96956.78;29395;226;63014;-59
2022/01/03 00:48:48;;;;;;;0.50;0.50;;;;;;;10.70;60.64;96950.25;29395;248;63015;-57
2022/01/03 00:49:21;;;;;;;0.50;0.50;;;;;;;10.64;61.42;96957.66;29395;226;63005;-58
2022/01/03 00:49:53;;;;;;;0.50;0.50;;;;;;;10.65;60.84;96953.84;29395;262;63009;-58
2022/01/03 00:50:26;;;;;;;0.50;0.50;;;;;;;10.64;60.70;96957.66;29395;210;63005;-58
2022/01/03 00:51:01;;;;;;;0.50;0.50;;;;;;;10.62;61.21;96948.97;29394;231;64009;-58
2022/01/03 00:51:33;;;;;;;0.50;0.50;;;;;;;10.61;61.47;96962.84;29395;278;63005;-58
2022/01/03 00:52:05;;;;;;;0.50;0.50;;;;;;;10.57;61.55;96959.91;29395;270;63009;-58
2022/01/03 00:52:37;;;;;;;0.50;0.50;;;;;;;10.61;61.26;96960.94;29395;273;63005;-60
2022/01/03 00:53:08;;;;;;;0.50;0.50;;;;;;;10.57;61.29;96956.38;29395;219;63009;-57
2022/01/03 00:53:40;;;;;;;0.50;0.50;;;;;;;10.58;61.24;96975.09;29395;221;63004;-56
2022/01/03 00:54:12;;;;;;;0.50;0.50;;;;;;;10.58;61.25;96977.78;29395;250;63009;-58
2022/01/03 00:54:43;;;;;;;0.50;0.50;;;;;;;10.58;61.28;96950.66;29395;246;63004;-58
2022/01/03 00:55:15;;;;;;;0.50;0.50;;;;;;;10.56;61.19;96960.19;29395;222;63009;-58
2022/01/03 00:56:11;;;;;;;0.40;0.40;;;;;;;10.59;61.35;96984.84;29395;242;63008;-57
2022/01/03 00:56:48;;;;;;;0.47;0.47;;;;;;;10.63;60.59;96983.16;29394;205;64009;-59
2022/01/03 00:57:31;;;;;;;0.50;0.50;;;;;;;10.62;60.99;96962.56;29395;200;63005;-62
2022/01/03 00:58:14;;;;;;;0.50;0.50;;;;;;;10.60;60.76;96983.75;29395;206;63009;-60
2022/01/03 00:59:12;;;;;;;0.50;0.50;;;;;;;10.63;60.58;96988.59;29395;214;63005;-60
2022/01/03 01:00:02;;;;;;;0.50;0.50;;;;;;;10.66;60.53;96993.44;29395;196;63024;-61
2022/01/03 01:00:39;;;;;;;0.50;0.50;;;;;;;10.62;61.27;96981.53;29417;247;63004;-59
2022/01/03 01:01:14;;;;;;;0.50;0.50;;;;;;;10.55;61.56;96981.09;29394;274;64009;-59
2022/01/03 01:01:52;;;;;;;0.50;0.50;;;;;;;10.53;61.63;96972.44;29395;279;63008;-60
2022/01/03 01:02:27;;;;;;;0.50;0.50;;;;;;;10.49;61.34;96987.66;29395;256;63009;-59
2022/01/03 01:03:14;;;;;;;0.50;0.50;;;;;;;10.57;61.50;96967.22;29395;196;63004;-58
2022/01/03 01:03:48;;;;;;;0.50;0.50;;;;;;;10.60;60.86;96983.75;29395;204;63008;-62
2022/01/03 01:04:21;;;;;;;0.50;0.50;;;;;;;10.67;60.74;96978.78;29395;224;63005;-62
2022/01/03 01:04:55;;;;;;;0.50;0.50;;;;;;;10.70;60.47;96980.91;29395;222;63009;-57
2022/01/03 01:05:27;;;;;;;0.50;0.50;;;;;;;10.68;60.74;96969.53;29395;199;63014;-59
2022/01/03 01:06:06;;;;;;;0.50;0.50;;;;;;;10.62;60.82;96969.88;29395;205;63009;-59
2022/01/03 01:06:38;;;;;;;0.50;0.50;;;;;;;10.58;61.00;96982.41;29394;202;64005;-58
2022/01/03 01:07:10;;;;;;;1.37;0.93;;;;;;;10.62;60.66;96975.31;29395;256;63009;-61
2022/01/03 01:07:44;;;;;;;0.50;0.50;;;;;;;10.63;60.88;96964.16;29395;209;63004;-58
2022/01/03 01:08:23;;;;;;;0.50;0.50;;;;;;;10.63;61.06;96971.50;29394;252;64009;-58
2022/01/03 01:08:57;;;;;;;0.50;0.50;;;;;;;10.59;61.45;96976.69;29395;199;63000;-59
2022/01/03 01:09:28;;;;;;;0.50;0.50;;;;;;;10.65;60.41;96982.87;29395;253;63015;-57
2022/01/03 01:10:02;;;;;;;0.50;0.50;;;;;;;10.64;60.69;96979.34;29395;273;63004;-57
2022/01/03 01:10:36;;;;;;;0.50;0.50;;;;;;;10.63;61.00;96977.72;29395;207;63008;-58
2022/01/03 01:11:08;;;;;;;0.50;0.50;;;;;;;10.62;60.76;96978.84;29395;247;63005;-58
2022/01/03 01:11:44;;;;;;;0.50;0.50;;;;;;;10.58;61.10;96980.50;29395;199;63024;-56
2022/01/03 01:12:18;;;;;;;0.50;0.50;;;;;;;10.56;61.15;96987.31;29395;267;63018;-58
2022/01/03 01:12:49;;;;;;;0.43;0.43;;;;;;;10.52;61.04;96978.94;29395;209;63009;-60
2022/01/03 01:13:22;;;;;;;0.50;0.50;;;;;;;10.51;61.47;96990.09;29394;203;64005;-58
2022/01/03 01:13:54;;;;;;;0.50;0.50;;;;;;;10.45;61.60;96983.91;29395;321;63017;-61
2022/01/03 01:14:28;;;;;;;0.45;0.45;;;;;;;10.45;61.57;96980.41;29395;210;63005;-58
2022/01/03 01:14:59;;;;;;;0.50;0.50;;;;;;;10.44;61.64;96990.44;29395;233;63023;-58
2022/01/03 01:15:31;;;;;;;0.50;0.50;;;;;;;10.41;62.11;97001.84;29395;202;63004;-62
2022/01/03 01:16:07;;;;;;;0.50;0.50;;;;;;;10.38;61.79;96991.63;29394;202;64009;-58
2022/01/03 01:16:39;;;;;;;0.50;0.50;;;;;;;10.37;61.83;97000.84;29395;202;63004;-61
2022/01/03 01:17:11;;;;;;;0.50;0.50;;;;;;;10.41;61.54;97001.84;29395;280;63009;-62
2022/01/03 01:17:43;;;;;;;0.50;0.50;;;;;;;10.43;61.84;96998.84;29395;219;63004;-59
2022/01/03 01:18:16;;;;;;;0.50;0.50;;;;;;;10.46;61.54;96993.66;29395;229;63008;-63
2022/01/03 01:18:50;;;;;;;0.47;0.47;;;;;;;10.44;61.74;96995.06;29395;210;63005;-60
2022/01/03 01:19:24;;;;;;;0.45;0.45;;;;;;;10.40;61.90;96983.97;29395;244;63009;-59
2022/01/03 01:19:58;;;;;;;0.50;0.50;;;;;;;10.37;62.15;96998.13;29395;245;63005;-60
2022/01/03 01:20:31;;;;;;;0.50;0.50;;;;;;;10.41;61.54;97007.28;29395;197;63009;-57
2022/01/03 01:21:05;;;;;;;0.50;0.50;;;;;;;10.41;61.59;96985.59;29394;200;64005;-57
2022/01/03 01:21:37;;;;;;;0.50;0.50;;;;;;;10.46;61.46;96990.94;29395;203;63019;-57
2022/01/03 01:22:09;;;;;;;0.50;0.50;;;;;;;10.45;61.30;96992.06;29395;205;63005;-61
2022/01/03 01:22:44;;;;;;;0.40;0.40;;;;;;;10.42;61.61;96992.63;29395;254;63009;-60
2022/01/03 01:23:15;;;;;;;0.50;0.50;;;;;;;10.40;61.80;96997.53;29395;198;63004;-60
2022/01/03 01:23:56;;;;;;;0.50;0.50;;;;;;;10.39;61.91;97004.09;29395;251;63009;-60
2022/01/03 01:24:33;;;;;;;0.50;0.50;;;;;;;10.45;61.40;96986.62;29417;199;63013;-54
2022/01/03 01:27:48;;;;;;;0.50;0.50;;;;;;;10.52;61.27;96991.72;29439;274;63005;-58
2022/01/03 01:28:23;;;;;;;0.50;0.50;;;;;;;10.53;61.10;96991.41;29371;198;64009;-59
2022/01/03 01:28:55;;;;;;;0.50;0.50;;;;;;;10.52;61.12;96986.28;29394;239;64005;-59
2022/01/03 01:29:26;;;;;;;0.50;0.50;;;;;;;10.48;61.44;96991.47;29395;271;63009;-59
2022/01/03 01:30:01;;;;;;;0.50;0.50;;;;;;;10.42;61.44;96987.19;29395;226;63005;-60
2022/01/03 01:30:33;;;;;;;0.50;0.50;;;;;;;10.39;61.64;96995.94;29395;207;63009;-60
2022/01/03 01:31:07;;;;;;;2.15;2.05;;;;;;;10.40;61.80;96997.53;29395;340;63004;-58
2022/01/03 01:31:47;;;;;;;0.50;0.50;;;;;;;10.37;62.34;97000.84;29395;250;63009;-59
2022/01/03 01:32:19;;;;;;;0.50;0.50;;;;;;;10.37;62.14;97000.84;29377;206;125004;-59
2022/01/03 01:33:13;;;;;;;0.50;0.50;;;;;;;10.41;61.85;96997.25;29395;209;63008;-59
2022/01/03 01:33:45;;;;;;;0.50;0.50;;;;;;;10.36;62.41;96993.81;29395;215;63005;-58
2022/01/03 01:34:29;;;;;;;0.40;0.40;;;;;;;10.31;62.52;96999.28;29394;247;64009;-60
2022/01/03 01:35:01;;;;;;;0.50;0.50;;;;;;;10.26;62.70;97007.47;29395;242;63008;-59
2022/01/03 01:35:56;;;;;;;0.45;0.45;;;;;;;10.23;62.99;97010.75;29394;253;64009;-63
2022/01/03 01:36:29;;;;;;;0.57;0.57;;;;;;;10.29;62.15;97009.62;29395;212;63005;-59
2022/01/03 01:37:02;;;;;;;0.45;0.45;;;;;;;10.31;62.09;97012.84;29395;220;63009;-65
2022/01/03 01:37:36;;;;;;;0.50;0.50;;;;;;;10.36;62.03;97015.50;29395;248;63005;-59
2022/01/03 01:38:10;;;;;;;0.50;0.50;;;;;;;10.36;62.33;97018.22;29395;257;63009;-59
2022/01/03 01:38:49;;;;;;;0.50;0.50;;;;;;;10.37;62.08;97014.41;29395;203;63004;-58
2022/01/03 01:39:24;;;;;;;0.50;0.50;;;;;;;10.35;62.28;97014.69;29394;237;64009;-58
2022/01/03 01:39:58;;;;;;;0.50;0.50;;;;;;;10.33;62.25;97010.66;29395;215;63004;-58
2022/01/03 01:40:29;;;;;;;0.50;0.50;;;;;;;10.32;62.59;97023.41;29395;202;63008;-58
2022/01/03 01:41:03;;;;;;;6.82;6.37;;;;;;;10.38;62.49;97024.16;29395;235;63004;-63
2022/01/03 01:41:42;;;;;;;0.50;0.50;;;;;;;10.35;62.20;97030.16;29395;203;63015;-58
2022/01/03 01:42:17;;;;;;;0.50;0.50;;;;;;;10.30;62.42;97027.50;29395;228;63005;-58
2022/01/03 01:42:52;;;;;;;0.50;0.50;;;;;;;10.27;62.41;97023.47;29395;239;63013;-57
2022/01/03 01:43:44;;;;;;;0.50;0.50;;;;;;;10.29;62.41;97020.47;29395;214;63005;-58
2022/01/03 01:44:17;;;;;;;0.50;0.50;;;;;;;10.26;62.47;97016.41;29394;197;64009;-59
2022/01/03 01:44:51;;;;;;;0.50;0.50;;;;;;;10.20;63.29;97019.47;29395;232;63005;-58
2022/01/03 01:45:26;;;;;;;0.50;0.50;;;;;;;10.16;63.31;97010.25;29395;231;63020;-58
2022/01/03 01:45:59;;;;;;;0.50;0.50;;;;;;;10.13;63.35;97017.06;29395;219;63004;-57
2022/01/03 01:46:33;;;;;;;0.50;0.50;;;;;;;10.12;63.58;97014.63;29395;237;63009;-58
2022/01/03 01:47:06;;;;;;;0.50;0.50;;;;;;;10.09;63.34;97016.81;29395;259;63004;-60
2022/01/03 01:47:40;;;;;;;0.50;0.50;;;;;;;10.12;63.55;97023.56;29394;202;64009;-63
2022/01/03 01:48:16;;;;;;;0.50;0.50;;;;;;;10.21;62.80;97023.78;29395;265;63004;-63
2022/01/03 01:48:49;;;;;;;0.50;0.50;;;;;;;10.23;62.80;97021.59;29395;234;63009;-62
2022/01/03 01:49:24;;;;;;;0.50;0.50;;;;;;;10.27;62.59;97022.66;29395;236;63005;-59
2022/01/03 01:49:56;;;;;;;0.77;0.77;;;;;;;10.28;62.74;97019.66;29395;213;63009;-58
2022/01/03 01:50:28;;;;;;;0.50;0.50;;;;;;;10.25;62.84;97030.25;29395;277;63005;-57
2022/01/03 01:51:01;;;;;;;0.50;0.50;;;;;;;10.25;62.95;97035.69;29394;259;64009;-56
2022/01/03 01:51:36;;;;;;;0.60;0.60;;;;;;;10.30;62.47;97039.16;29395;203;63005;-68
2022/01/03 01:52:15;;;;;;;0.50;0.50;;;;;;;10.32;62.88;97036.16;29395;222;63012;-58
2022/01/03 01:52:53;;;;;;;0.50;0.50;;;;;;;10.27;62.97;97044.34;29395;239;63005;-58
2022/01/03 01:53:26;;;;;;;0.50;0.50;;;;;;;10.25;63.04;97030.25;29395;261;63009;-59
2022/01/03 01:53:57;;;;;;;0.50;0.50;;;;;;;10.24;63.14;97031.34;29395;240;63004;-58
2022/01/03 01:54:37;;;;;;;0.45;0.45;;;;;;;10.22;63.16;97036.25;29395;270;63009;-57
2022/01/03 01:55:12;;;;;;;0.70;0.70;;;;;;;10.29;62.64;97031.31;29395;198;63004;-58
2022/01/03 01:55:50;;;;;;;0.50;0.50;;;;;;;10.29;63.19;97031.31;29395;255;63008;-58
2022/01/03 01:56:32;;;;;;;0.50;0.50;;;;;;;10.29;62.65;97025.88;29394;395;64005;-59
2022/01/03 01:57:18;;;;;;;0.50;0.50;;;;;;;10.21;62.94;97026.50;29395;250;63009;-61
2022/01/03 01:58:19;;;;;;;0.50;0.50;;;;;;;10.23;63.06;97016.19;29394;231;64005;-58
2022/01/03 01:59:19;;;;;;;0.50;0.50;;;;;;;10.14;63.11;97017.84;29395;206;63009;-59
2022/01/03 02:00:16;;;;;;;0.50;0.50;;;;;;;10.21;62.82;97021.87;29395;246;63005;-58
2022/01/03 02:00:56;;;;;;;0.50;0.50;;;;;;;10.18;63.29;97025.12;29395;267;63009;-57
2022/01/03 02:01:59;;;;;;;0.50;0.50;;;;;;;10.15;63.32;97016.78;29395;216;63004;-58
2022/01/03 02:03:01;;;;;;;0.50;0.50;;;;;;;10.19;62.96;97025.94;29394;247;64022;-58
2022/01/03 02:04:06;;;;;;;0.88;0.88;;;;;;;10.30;62.68;97022.06;29394;240;64004;-61
2022/01/03 02:05:24;;;;;;;0.50;0.50;;;;;;;10.28;63.10;97018.84;29395;211;63009;-58
2022/01/03 02:06:27;;;;;;;0.50;0.50;;;;;;;10.25;63.18;97036.50;29395;217;63005;-60
2022/01/03 02:07:56;;;;;;;0.55;0.55;;;;;;;10.41;62.65;97028.97;29395;222;63009;-63
2022/01/03 02:08:32;;;;;;;0.50;0.50;;;;;;;10.44;62.34;97017.56;29395;226;63009;-55
2022/01/03 02:09:20;;;;;;;0.50;0.50;;;;;;;10.40;62.52;97032.78;29394;217;63995;-59
2022/01/03 02:10:12;;;;;;;0.50;0.50;;;;;;;10.41;62.40;97015.41;29395;229;63008;-57
2022/01/03 02:11:04;;;;;;;0.50;0.50;;;;;;;10.44;62.55;97022.19;29417;222;63004;-58
2022/01/03 02:12:05;;;;;;;0.50;0.50;;;;;;;10.43;62.65;97015.94;29394;213;64009;-63
2022/01/03 02:12:48;;;;;;;0.50;0.50;;;;;;;10.40;63.29;97005.66;29416;280;64005;-59
2022/01/03 02:13:22;;;;;;;0.50;0.50;;;;;;;10.33;63.07;97010.66;29395;202;63024;-58
2022/01/03 02:13:55;;;;;;;0.50;0.50;;;;;;;10.28;63.40;97019.66;29395;439;63005;-59
2022/01/03 02:14:35;;;;;;;0.50;0.50;;;;;;;10.24;63.47;97015.09;29395;291;63027;-57
2022/01/03 02:15:11;;;;;;;0.50;0.50;;;;;;;10.19;63.55;97026.78;29395;203;63004;-58
2022/01/03 02:15:46;;;;;;;0.50;0.50;;;;;;;10.24;63.79;97017.78;29395;204;63021;-69
2022/01/03 02:16:18;;;;;;;0.50;0.50;;;;;;;10.27;63.53;97017.22;29395;274;63004;-59
2022/01/03 02:16:52;;;;;;;0.50;0.50;;;;;;;10.25;63.79;97019.41;29395;221;63009;-60
2022/01/03 02:17:24;;;;;;;0.50;0.50;;;;;;;10.23;63.74;97021.59;29395;226;63009;-59
2022/01/03 02:17:55;;;;;;;0.50;0.50;;;;;;;10.22;63.94;97020.78;29394;202;64008;-59
2022/01/03 02:18:27;;;;;;;0.50;0.50;;;;;;;10.19;64.00;97032.22;29395;242;63005;-59
2022/01/03 02:18:58;;;;;;;0.60;0.60;;;;;;;10.22;63.76;97041.69;29394;211;64009;-57
2022/01/03 02:19:30;;;;;;;0.50;0.50;;;;;;;10.27;63.63;97028.06;29395;225;63005;-57
2022/01/03 02:20:09;;;;;;;0.50;0.50;;;;;;;10.29;63.82;97029.41;29395;225;63023;-64
2022/01/03 02:20:46;;;;;;;0.50;0.50;;;;;;;10.31;63.60;97013.66;29394;337;64005;-60
2022/01/03 02:21:19;;;;;;;0.50;0.50;;;;;;;10.29;63.95;97020.47;29395;218;63009;-61
2022/01/03 02:21:50;;;;;;;0.50;0.50;;;;;;;10.19;64.85;97025.94;29395;249;63015;-59
2022/01/03 02:22:21;;;;;;;0.50;0.50;;;;;;;10.13;64.60;97017.06;29395;198;63009;-60
2022/01/03 02:22:54;;;;;;;0.50;0.50;;;;;;;10.10;64.97;97028.47;29395;220;63004;-60
2022/01/03 02:23:26;;;;;;;0.50;0.50;;;;;;;10.07;64.89;97024.44;29395;197;63009;-56
2022/01/03 02:23:57;;;;;;;0.50;0.50;;;;;;;10.17;64.23;97022.72;29395;208;63004;-66
2022/01/03 02:24:32;;;;;;;0.50;0.50;;;;;;;10.17;64.27;97017.28;29394;203;64009;-58
2022/01/03 02:25:07;;;;;;;0.50;0.50;;;;;;;10.13;64.59;97022.47;29395;238;63004;-62
2022/01/03 02:25:40;;;;;;;0.50;0.50;;;;;;;10.15;64.49;97022.19;29395;267;63009;-60
2022/01/03 02:26:12;;;;;;;0.50;0.50;;;;;;;10.19;64.58;97023.25;29395;198;63007;-58
2022/01/03 02:26:47;;;;;;;0.50;0.50;;;;;;;10.22;64.45;97026.22;29395;219;63009;-58
2022/01/03 02:27:18;;;;;;;0.50;0.50;;;;;;;10.25;64.30;97024.84;29395;251;63005;-61
2022/01/03 02:27:52;;;;;;;0.50;0.50;;;;;;;10.26;64.14;97023.75;29395;222;63009;-59
2022/01/03 02:28:23;;;;;;;0.43;0.43;;;;;;;10.23;64.12;97022.41;29395;215;63009;-62
2022/01/03 02:28:55;;;;;;;0.50;0.50;;;;;;;10.31;64.00;97012.84;29395;199;63009;-68
2022/01/03 02:29:26;;;;;;;0.50;0.50;;;;;;;10.32;63.95;97026.13;29395;225;63005;-58
2022/01/03 02:29:58;;;;;;;0.50;0.50;;;;;;;10.38;63.72;97029.59;29394;211;64009;-68
2022/01/03 02:30:31;;;;;;;0.50;0.50;;;;;;;10.41;63.30;97015.41;29394;211;64004;-60
2022/01/03 02:31:02;;;;;;;0.50;0.50;;;;;;;10.41;63.41;97020.84;29395;197;63009;-66
2022/01/03 02:31:34;;;;;;;0.50;0.50;;;;;;;10.38;63.38;97018.75;29395;205;63004;-59
2022/01/03 02:32:09;;;;;;;0.50;0.50;;;;;;;10.34;63.43;97017.69;29395;218;63009;-59
2022/01/03 02:32:47;;;;;;;0.50;0.50;;;;;;;10.30;63.61;97016.66;29416;270;64004;-69
2022/01/03 02:33:19;;;;;;;0.50;0.50;;;;;;;10.34;63.86;97023.13;29395;214;63009;-62
2022/01/03 02:33:51;;;;;;;0.50;0.50;;;;;;;10.38;63.30;97022.25;29394;228;64005;-59
2022/01/03 02:34:24;;;;;;;0.40;0.40;;;;;;;10.39;63.56;97020.34;29395;207;63016;-59
2022/01/03 02:34:55;;;;;;;0.50;0.50;;;;;;;10.35;63.75;97014.69;29395;245;63019;-59
2022/01/03 02:35:27;;;;;;;0.50;0.50;;;;;;;10.33;63.60;97021.50;29395;251;63013;-57
2022/01/03 02:35:58;;;;;;;0.50;0.50;;;;;;;10.37;63.80;97011.69;29395;216;63005;-59
2022/01/03 02:36:35;;;;;;;0.50;0.50;;;;;;;10.39;63.24;97036.63;29395;215;63009;-62
2022/01/03 02:37:06;;;;;;;0.50;0.50;;;;;;;10.38;63.85;97024.16;29395;218;63014;-64
2022/01/03 02:37:39;;;;;;;0.60;0.60;;;;;;;10.36;63.60;97010.09;29394;222;64009;-59
2022/01/03 02:38:13;;;;;;;0.50;0.50;;;;;;;10.34;63.48;97012.28;29395;220;63004;-60
2022/01/03 02:38:45;;;;;;;0.50;0.50;;;;;;;10.31;63.51;97007.41;29395;202;63009;-58
2022/01/03 02:39:17;;;;;;;0.50;0.50;;;;;;;10.28;63.72;97014.22;29395;209;63007;-59
2022/01/03 02:39:50;;;;;;;0.50;0.50;;;;;;;10.22;64.26;97014.56;29394;247;64009;-58
2022/01/03 02:40:22;;;;;;;0.70;0.70;;;;;;;10.24;64.09;97012.38;29395;212;63008;-56
2022/01/03 02:40:53;;;;;;;0.50;0.50;;;;;;;10.24;64.16;97012.38;29395;272;63009;-61
2022/01/03 02:41:24;;;;;;;0.50;0.50;;;;;;;10.27;64.01;97007.19;29395;247;63005;-59
2022/01/03 02:41:56;;;;;;;0.50;0.50;;;;;;;10.30;64.03;97019.38;29395;199;63009;-70
2022/01/03 02:42:27;;;;;;;0.50;0.50;;;;;;;10.29;63.96;97012.31;29395;213;63005;-59
2022/01/03 02:42:59;;;;;;;0.50;0.50;;;;;;;10.25;64.24;97012.09;29395;252;63009;-60
2022/01/03 02:43:30;;;;;;;0.50;0.50;;;;;;;10.23;64.37;97017.00;29395;226;63005;-62
2022/01/03 02:44:01;;;;;;;0.50;0.50;;;;;;;10.22;64.14;97014.56;29395;198;63008;-60
2022/01/03 02:44:32;;;;;;;0.50;0.50;;;;;;;10.20;64.57;97011.31;29395;238;63005;-59
2022/01/03 02:45:24;;;;;;;0.50;0.50;;;;;;;10.19;64.48;97015.09;29394;238;64009;-60
2022/01/03 02:45:55;;;;;;;0.50;0.50;;;;;;;10.19;64.15;97006.97;29416;250;64004;-60
2022/01/03 02:46:27;;;;;;;0.50;0.50;;;;;;;10.21;64.16;97005.63;29394;202;64009;-60
2022/01/03 02:46:58;;;;;;;0.50;0.50;;;;;;;10.15;64.82;97017.56;29395;275;63004;-60
2022/01/03 02:47:30;;;;;;;0.50;0.50;;;;;;;10.11;65.06;97008.41;29395;216;63008;-61
2022/01/03 02:48:07;;;;;;;0.50;0.50;;;;;;;10.11;64.95;97013.81;29395;264;63004;-63
2022/01/03 02:48:39;;;;;;;0.50;0.50;;;;;;;10.07;64.95;97013.56;29394;222;64009;-57
2022/01/03 02:49:11;;;;;;;0.50;0.50;;;;;;;10.09;64.63;97016.81;29394;198;64005;-65
2022/01/03 02:49:42;;;;;;;0.50;0.50;;;;;;;10.17;64.38;97009.16;29395;245;63009;-59
2022/01/03 02:50:18;;;;;;;0.50;0.50;;;;;;;10.13;64.58;97006.22;29395;250;63017;-55
2022/01/03 02:50:49;;;;;;;0.50;0.50;;;;;;;10.13;64.52;97013.53;29395;251;63009;-59
2022/01/03 02:51:20;;;;;;;0.50;0.50;;;;;;;10.13;64.43;97010.81;29395;240;63005;-58
2022/01/03 02:51:51;;;;;;;0.50;0.50;;;;;;;10.12;64.53;97014.63;29395;196;63009;-58
2022/01/03 02:52:23;;;;;;;0.50;0.50;;;;;;;10.12;65.16;97014.63;29395;196;63005;-63
2022/01/03 02:52:54;;;;;;;0.70;0.70;;;;;;;10.17;64.58;97001.03;29395;211;63009;-58
2022/01/03 02:53:27;;;;;;;0.50;0.50;;;;;;;10.20;64.90;97016.75;29395;202;63010;-57
2022/01/03 02:54:02;;;;;;;0.50;0.50;;;;;;;10.19;64.53;97004.25;29395;203;63025;-58
2022/01/03 02:54:33;;;;;;;1.08;1.08;;;;;;;10.12;65.29;97004.59;29394;246;64004;-58